sensor_id;sensor_type;location;lat;lon;timestamp;temperature;humidity
6863;DHT22;3470;48.738;9.616;2023-06-14T11:38:25;35.10;41.50
6863;DHT22;3470;48.738;9.616;2023-06-14T11:40:51;37.10;40.30
6863;DHT22;3470;48.738;9.616;2023-06-14T11:43:17;38.30;39.40
6863;DHT22;3470;48.738;9.616;2023-06-14T11:45:42;39.50;38.00
6863;DHT22;3470;48.738;9.616;2023-06-14T11:48:08;39.50;38.00
6863;DHT22;3470;48.738;9.616;2023-06-14T11:50:37;40.40;37.00
6863;DHT22;3470;48.738;9.616;2023-06-14T11:53:03;40.50;37.70
6863;DHT22;3470;48.738;9.616;2023-06-14T11:55:38;38.20;38.20
6863;DHT22;3470;48.738;9.616;2023-06-14T16:58:34;25.00;54.80
6863;DHT22;3470;48.738;9.616;2023-06-14T17:01:00;24.60;54.80
6863;DHT22;3470;48.738;9.616;2023-06-14T17:03:25;24.50;55.10
6863;DHT22;3470;48.738;9.616;2023-06-14T17:05:58;24.50;55.00
6863;DHT22;3470;48.738;9.616;2023-06-14T17:08:24;24.40;55.70
6863;DHT22;3470;48.738;9.616;2023-06-14T17:10:51;24.30;55.70
6863;DHT22;3470;48.738;9.616;2023-06-14T17:13:17;24.30;56.40
6863;DHT22;3470;48.738;9.616;2023-06-14T17:15:43;24.30;56.40
6863;DHT22;3470;48.738;9.616;2023-06-14T17:18:10;24.10;55.80
6863;DHT22;3470;48.738;9.616;2023-06-14T17:20:35;24.10;55.70
6863;DHT22;3470;48.738;9.616;2023-06-14T17:23:01;24.10;55.90
6863;DHT22;3470;48.738;9.616;2023-06-14T17:25:27;24.00;56.90
6863;DHT22;3470;48.738;9.616;2023-06-14T17:27:55;23.80;57.20
6863;DHT22;3470;48.738;9.616;2023-06-14T17:30:20;23.70;57.80
6863;DHT22;3470;48.738;9.616;2023-06-14T17:32:46;23.50;57.70
6863;DHT22;3470;48.738;9.616;2023-06-14T17:35:11;23.30;58.10
6863;DHT22;3470;48.738;9.616;2023-06-14T17:37:40;23.10;57.50
6863;DHT22;3470;48.738;9.616;2023-06-14T17:40:06;23.00;57.80
6863;DHT22;3470;48.738;9.616;2023-06-14T17:42:32;22.90;58.30
6863;DHT22;3470;48.738;9.616;2023-06-14T17:44:58;22.80;58.60
6863;DHT22;3470;48.738;9.616;2023-06-14T17:47:24;22.70;58.60
6863;DHT22;3470;48.738;9.616;2023-06-14T17:49:50;22.70;58.60
6863;DHT22;3470;48.738;9.616;2023-06-14T17:52:20;22.60;59.00
6863;DHT22;3470;48.738;9.616;2023-06-14T17:54:46;22.40;59.00
6863;DHT22;3470;48.738;9.616;2023-06-14T17:57:12;22.40;59.40
6863;DHT22;3470;48.738;9.616;2023-06-14T17:59:37;22.30;59.80
6863;DHT22;3470;48.738;9.616;2023-06-14T18:02:03;22.10;60.00
6863;DHT22;3470;48.738;9.616;2023-06-14T18:04:29;22.10;60.50
6863;DHT22;3470;48.738;9.616;2023-06-14T18:06:55;21.90;61.00
6863;DHT22;3470;48.738;9.616;2023-06-14T18:09:21;21.80;60.00
6863;DHT22;3470;48.738;9.616;2023-06-14T18:11:46;21.80;59.90
6863;DHT22;3470;48.738;9.616;2023-06-14T18:14:12;21.80;60.70
6863;DHT22;3470;48.738;9.616;2023-06-14T18:16:38;21.70;60.80
6863;DHT22;3470;48.738;9.616;2023-06-14T18:19:06;21.70;60.90
6863;DHT22;3470;48.738;9.616;2023-06-14T18:21:32;21.60;61.80
6863;DHT22;3470;48.738;9.616;2023-06-14T18:23:58;21.50;61.50
6863;DHT22;3470;48.738;9.616;2023-06-14T18:26:25;21.50;60.70
6863;DHT22;3470;48.738;9.616;2023-06-14T18:28:54;21.40;61.60
6863;DHT22;3470;48.738;9.616;2023-06-14T18:31:20;21.30;61.50
6863;DHT22;3470;48.738;9.616;2023-06-14T18:33:46;21.20;61.60
6863;DHT22;3470;48.738;9.616;2023-06-14T18:36:12;21.10;61.80
6863;DHT22;3470;48.738;9.616;2023-06-14T18:38:37;21.10;61.90
6863;DHT22;3470;48.738;9.616;2023-06-14T18:41:03;21.10;62.40
6863;DHT22;3470;48.738;9.616;2023-06-14T18:43:29;21.00;62.10
6863;DHT22;3470;48.738;9.616;2023-06-14T18:46:00;21.00;63.40
6863;DHT22;3470;48.738;9.616;2023-06-14T18:48:26;20.90;62.90
6863;DHT22;3470;48.738;9.616;2023-06-14T18:50:51;20.90;63.40
6863;DHT22;3470;48.738;9.616;2023-06-14T18:53:17;20.80;63.40
6863;DHT22;3470;48.738;9.616;2023-06-14T18:55:43;20.70;63.70
6863;DHT22;3470;48.738;9.616;2023-06-14T18:58:09;20.60;64.20
6863;DHT22;3470;48.738;9.616;2023-06-14T19:00:36;20.40;64.30
6863;DHT22;3470;48.738;9.616;2023-06-14T19:03:02;20.30;65.00
6863;DHT22;3470;48.738;9.616;2023-06-14T19:05:29;20.10;65.30
6863;DHT22;3470;48.738;9.616;2023-06-14T19:07:55;20.10;65.50
6863;DHT22;3470;48.738;9.616;2023-06-14T19:10:21;19.90;65.80
6863;DHT22;3470;48.738;9.616;2023-06-14T19:12:47;19.80;66.30
6863;DHT22;3470;48.738;9.616;2023-06-14T19:15:13;19.70;66.70
6863;DHT22;3470;48.738;9.616;2023-06-14T19:17:39;19.50;67.00
6863;DHT22;3470;48.738;9.616;2023-06-14T19:20:05;19.40;67.40
6863;DHT22;3470;48.738;9.616;2023-06-14T19:22:32;19.30;67.90
6863;DHT22;3470;48.738;9.616;2023-06-14T19:24:58;19.20;68.40
6863;DHT22;3470;48.738;9.616;2023-06-14T19:27:23;19.20;68.10
6863;DHT22;3470;48.738;9.616;2023-06-14T19:29:49;19.20;68.00
6863;DHT22;3470;48.738;9.616;2023-06-14T19:32:14;19.20;68.10
6863;DHT22;3470;48.738;9.616;2023-06-14T19:34:40;19.20;68.30
6863;DHT22;3470;48.738;9.616;2023-06-14T19:37:09;19.20;68.10
6863;DHT22;3470;48.738;9.616;2023-06-14T19:39:35;19.20;68.20
6863;DHT22;3470;48.738;9.616;2023-06-14T19:42:01;19.10;68.30
6863;DHT22;3470;48.738;9.616;2023-06-14T19:44:26;19.00;68.60
6863;DHT22;3470;48.738;9.616;2023-06-14T19:46:52;18.90;68.80
6863;DHT22;3470;48.738;9.616;2023-06-14T19:49:17;18.80;69.10
6863;DHT22;3470;48.738;9.616;2023-06-14T19:51:43;18.70;69.10
6863;DHT22;3470;48.738;9.616;2023-06-14T19:54:09;18.70;69.60
6863;DHT22;3470;48.738;9.616;2023-06-14T19:56:35;18.70;69.90
6863;DHT22;3470;48.738;9.616;2023-06-14T19:59:01;18.60;70.00
6863;DHT22;3470;48.738;9.616;2023-06-14T20:01:29;18.50;70.30
6863;DHT22;3470;48.738;9.616;2023-06-14T20:03:55;18.40;70.90
6863;DHT22;3470;48.738;9.616;2023-06-14T20:06:20;18.20;71.20
6863;DHT22;3470;48.738;9.616;2023-06-14T20:08:46;18.10;71.80
6863;DHT22;3470;48.738;9.616;2023-06-14T20:11:13;18.00;71.80
6863;DHT22;3470;48.738;9.616;2023-06-14T20:13:38;18.00;72.50
6863;DHT22;3470;48.738;9.616;2023-06-14T20:16:04;17.90;72.80
6863;DHT22;3470;48.738;9.616;2023-06-14T20:18:31;17.80;73.60
6863;DHT22;3470;48.738;9.616;2023-06-14T20:20:56;17.60;73.50
6863;DHT22;3470;48.738;9.616;2023-06-14T20:23:22;17.50;73.50
6863;DHT22;3470;48.738;9.616;2023-06-14T20:25:47;17.50;74.00
6863;DHT22;3470;48.738;9.616;2023-06-14T20:28:14;17.40;75.40
6863;DHT22;3470;48.738;9.616;2023-06-14T20:30:40;17.30;75.10
6863;DHT22;3470;48.738;9.616;2023-06-14T20:33:05;17.10;74.80
6863;DHT22;3470;48.738;9.616;2023-06-14T20:35:31;17.10;75.50
6863;DHT22;3470;48.738;9.616;2023-06-14T20:37:57;17.00;75.80
6863;DHT22;3470;48.738;9.616;2023-06-14T20:40:23;17.00;75.70
6863;DHT22;3470;48.738;9.616;2023-06-14T20:42:49;16.90;76.00
6863;DHT22;3470;48.738;9.616;2023-06-14T20:45:15;16.80;76.30
6863;DHT22;3470;48.738;9.616;2023-06-14T20:47:42;16.70;76.50
6863;DHT22;3470;48.738;9.616;2023-06-14T20:50:09;16.60;77.40
6863;DHT22;3470;48.738;9.616;2023-06-14T20:52:37;16.50;77.90
6863;DHT22;3470;48.738;9.616;2023-06-14T20:55:03;16.40;78.10
6863;DHT22;3470;48.738;9.616;2023-06-14T20:57:29;16.30;78.30
6863;DHT22;3470;48.738;9.616;2023-06-14T20:59:55;16.20;78.80
6863;DHT22;3470;48.738;9.616;2023-06-14T21:02:20;16.20;79.00
6863;DHT22;3470;48.738;9.616;2023-06-14T21:04:47;16.10;79.40
6863;DHT22;3470;48.738;9.616;2023-06-14T21:07:13;16.10;79.50
6863;DHT22;3470;48.738;9.616;2023-06-14T21:09:39;16.10;79.90
6863;DHT22;3470;48.738;9.616;2023-06-14T21:12:06;16.00;80.50
6863;DHT22;3470;48.738;9.616;2023-06-14T21:14:32;16.00;80.70
6863;DHT22;3470;48.738;9.616;2023-06-14T21:16:59;16.00;81.10
6863;DHT22;3470;48.738;9.616;2023-06-14T21:19:24;15.90;81.10
6863;DHT22;3470;48.738;9.616;2023-06-14T21:21:52;15.80;81.30
6863;DHT22;3470;48.738;9.616;2023-06-14T21:24:19;15.70;81.70
6863;DHT22;3470;48.738;9.616;2023-06-14T21:26:44;15.70;81.60
6863;DHT22;3470;48.738;9.616;2023-06-14T21:29:10;15.70;82.20
6863;DHT22;3470;48.738;9.616;2023-06-14T21:31:36;15.80;82.10
6863;DHT22;3470;48.738;9.616;2023-06-14T21:34:02;15.70;81.90
6863;DHT22;3470;48.738;9.616;2023-06-14T21:36:28;15.70;81.80
6863;DHT22;3470;48.738;9.616;2023-06-14T21:38:54;15.60;81.40
6863;DHT22;3470;48.738;9.616;2023-06-14T21:41:20;15.50;80.90
6863;DHT22;3470;48.738;9.616;2023-06-14T21:43:45;15.40;81.50
6863;DHT22;3470;48.738;9.616;2023-06-14T21:46:11;15.30;81.80
6863;DHT22;3470;48.738;9.616;2023-06-14T21:48:36;15.30;82.00
6863;DHT22;3470;48.738;9.616;2023-06-14T21:51:02;15.20;82.40
6863;DHT22;3470;48.738;9.616;2023-06-14T21:53:28;15.10;83.00
6863;DHT22;3470;48.738;9.616;2023-06-14T21:55:57;15.10;83.30
6863;DHT22;3470;48.738;9.616;2023-06-14T21:58:22;15.00;83.50
6863;DHT22;3470;48.738;9.616;2023-06-14T22:00:48;14.90;83.70
6863;DHT22;3470;48.738;9.616;2023-06-14T22:03:14;14.90;84.00
6863;DHT22;3470;48.738;9.616;2023-06-14T22:05:39;14.80;84.00
6863;DHT22;3470;48.738;9.616;2023-06-14T22:08:05;14.80;84.10
6863;DHT22;3470;48.738;9.616;2023-06-14T22:10:30;14.70;83.80
6863;DHT22;3470;48.738;9.616;2023-06-14T22:12:57;14.70;83.90
6863;DHT22;3470;48.738;9.616;2023-06-14T22:15:24;14.60;84.20
6863;DHT22;3470;48.738;9.616;2023-06-14T22:17:51;14.60;84.30
6863;DHT22;3470;48.738;9.616;2023-06-14T22:20:17;14.60;84.30
6863;DHT22;3470;48.738;9.616;2023-06-14T22:22:43;14.60;84.30
6863;DHT22;3470;48.738;9.616;2023-06-14T22:25:09;14.50;84.60
6863;DHT22;3470;48.738;9.616;2023-06-14T22:27:36;14.50;84.20
6863;DHT22;3470;48.738;9.616;2023-06-14T22:30:12;14.50;85.10
6863;DHT22;3470;48.738;9.616;2023-06-14T22:32:38;14.40;84.70
6863;DHT22;3470;48.738;9.616;2023-06-14T22:35:04;14.30;85.10
6863;DHT22;3470;48.738;9.616;2023-06-14T22:37:30;14.30;85.20
6863;DHT22;3470;48.738;9.616;2023-06-14T22:40:09;14.30;84.90
6863;DHT22;3470;48.738;9.616;2023-06-14T22:42:45;14.30;85.50
6863;DHT22;3470;48.738;9.616;2023-06-14T22:45:14;14.30;85.30
6863;DHT22;3470;48.738;9.616;2023-06-14T22:47:48;14.20;84.70
6863;DHT22;3470;48.738;9.616;2023-06-14T22:50:15;14.20;85.30
6863;DHT22;3470;48.738;9.616;2023-06-14T22:52:41;14.20;85.60
6863;DHT22;3470;48.738;9.616;2023-06-14T22:55:10;14.20;85.90
6863;DHT22;3470;48.738;9.616;2023-06-14T22:57:37;14.20;85.80
6863;DHT22;3470;48.738;9.616;2023-06-14T23:00:04;14.20;85.60
6863;DHT22;3470;48.738;9.616;2023-06-14T23:02:36;14.10;86.30
6863;DHT22;3470;48.738;9.616;2023-06-14T23:05:02;14.10;86.00
6863;DHT22;3470;48.738;9.616;2023-06-14T23:07:28;14.00;86.50
6863;DHT22;3470;48.738;9.616;2023-06-14T23:09:54;14.00;86.60
6863;DHT22;3470;48.738;9.616;2023-06-14T23:12:22;13.90;86.90
6863;DHT22;3470;48.738;9.616;2023-06-14T23:14:50;13.90;87.50
6863;DHT22;3470;48.738;9.616;2023-06-14T23:17:15;13.90;87.50
6863;DHT22;3470;48.738;9.616;2023-06-14T23:19:41;13.80;87.80
6863;DHT22;3470;48.738;9.616;2023-06-14T23:22:08;13.80;88.00
6863;DHT22;3470;48.738;9.616;2023-06-14T23:24:38;13.70;88.20
6863;DHT22;3470;48.738;9.616;2023-06-14T23:27:06;13.60;88.90
6863;DHT22;3470;48.738;9.616;2023-06-14T23:29:33;13.50;89.00
6863;DHT22;3470;48.738;9.616;2023-06-14T23:32:00;13.40;89.30
6863;DHT22;3470;48.738;9.616;2023-06-14T23:34:26;13.40;89.10
6863;DHT22;3470;48.738;9.616;2023-06-14T23:36:55;13.40;89.30
6863;DHT22;3470;48.738;9.616;2023-06-14T23:39:21;13.40;89.20
6863;DHT22;3470;48.738;9.616;2023-06-14T23:41:47;13.40;89.50
6863;DHT22;3470;48.738;9.616;2023-06-14T23:44:19;13.30;89.60
6863;DHT22;3470;48.738;9.616;2023-06-14T23:46:51;13.30;89.70
6863;DHT22;3470;48.738;9.616;2023-06-14T23:49:32;13.20;89.90
6863;DHT22;3470;48.738;9.616;2023-06-14T23:51:57;13.30;90.00
6863;DHT22;3470;48.738;9.616;2023-06-14T23:54:27;13.30;90.00
6863;DHT22;3470;48.738;9.616;2023-06-14T23:56:52;13.30;90.10
6863;DHT22;3470;48.738;9.616;2023-06-14T23:59:22;13.30;90.20
